createdAt,value
2022-11-19T00:02:00.946Z,4.57
2022-11-19T00:04:30.056Z,4.33
2022-11-19T00:06:58.474Z,4.13
2022-11-19T00:09:26.435Z,4.97
2022-11-19T00:12:11.887Z,4.43
2022-11-19T00:14:39.632Z,3.97
2022-11-19T00:17:08.633Z,4.63
2022-11-19T00:19:37.700Z,4.60
2022-11-19T00:22:05.469Z,4.70
2022-11-19T00:24:33.255Z,5.07
2022-11-19T00:27:00.927Z,3.87
2022-11-19T00:29:28.663Z,4.70
2022-11-19T00:31:56.319Z,4.63
2022-11-19T00:34:24.038Z,4.47
2022-11-19T00:36:53.059Z,4.03
2022-11-19T00:39:21.248Z,5.00
2022-11-19T00:41:49.356Z,4.00
2022-11-19T00:44:17.064Z,4.10
2022-11-19T00:46:44.730Z,3.53
2022-11-19T00:49:12.455Z,4.17
2022-11-19T00:51:40.195Z,4.07
2022-11-19T00:54:09.208Z,4.23
2022-11-19T00:56:36.887Z,3.87
2022-11-19T00:59:05.606Z,4.77
2022-11-19T01:01:33.330Z,4.07
2022-11-19T01:04:01.090Z,3.90
2022-11-19T01:06:28.763Z,4.30
2022-11-19T01:08:56.404Z,4.37
2022-11-19T01:11:27.862Z,4.93
2022-11-19T01:13:55.981Z,4.40
2022-11-19T01:16:26.996Z,4.73
2022-11-19T01:18:54.989Z,4.23
2022-11-19T01:21:24.823Z,4.63
2022-11-19T01:23:52.670Z,3.93
2022-11-19T01:26:21.121Z,4.23
2022-11-19T01:28:52.641Z,4.63
2022-11-19T01:31:22.752Z,4.70
2022-11-19T01:33:51.502Z,4.80
2022-11-19T01:36:21.948Z,4.60
2022-11-19T01:38:50.971Z,4.70
2022-11-19T01:41:19.188Z,4.83
2022-11-19T01:43:49.418Z,5.30
2022-11-19T01:46:20.922Z,5.23
2022-11-19T01:48:53.110Z,4.47
2022-11-19T01:51:25.988Z,4.60
2022-11-19T01:53:56.910Z,5.17
2022-11-19T01:56:26.060Z,5.90
2022-11-19T01:58:56.653Z,5.23
2022-11-19T02:01:25.889Z,5.27
2022-11-19T02:03:54.028Z,5.03
2022-11-19T02:06:22.053Z,5.33
2022-11-19T02:08:51.611Z,4.13
2022-11-19T02:11:33.816Z,5.10
2022-11-19T02:14:14.809Z,4.70
2022-11-19T02:16:53.333Z,4.40
2022-11-19T02:19:53.314Z,5.07
2022-11-19T02:22:39.401Z,4.63
2022-11-19T02:25:15.221Z,5.17
2022-11-19T02:28:05.733Z,4.97
2022-11-19T02:30:38.011Z,5.17
2022-11-19T02:33:10.232Z,5.10
2022-11-19T02:35:47.505Z,4.60
2022-11-19T02:38:25.161Z,4.87
2022-11-19T02:40:57.750Z,5.17
2022-11-19T02:43:33.944Z,4.87
2022-11-19T02:46:09.281Z,5.13
2022-11-19T02:48:40.088Z,4.67
2022-11-19T02:51:09.146Z,5.00
2022-11-19T02:53:37.091Z,5.80
2022-11-19T02:56:13.596Z,5.13
2022-11-19T02:59:04.792Z,5.17
2022-11-19T03:01:54.519Z,5.20
2022-11-19T03:04:31.107Z,5.20
2022-11-19T03:07:02.470Z,4.80
2022-11-19T03:09:32.154Z,5.70
2022-11-19T03:12:09.574Z,5.40
2022-11-19T03:15:03.441Z,4.80
2022-11-19T03:17:41.568Z,4.97
2022-11-19T03:20:17.263Z,4.90
2022-11-19T03:22:53.294Z,5.30
2022-11-19T03:25:27.466Z,5.67
2022-11-19T03:28:01.788Z,5.40
2022-11-19T03:30:31.114Z,5.63
2022-11-19T03:33:04.924Z,5.30
2022-11-19T03:35:37.508Z,5.33
2022-11-19T03:38:09.457Z,4.83
2022-11-19T03:40:38.530Z,4.80
2022-11-19T03:43:10.505Z,5.00
2022-11-19T03:45:43.471Z,4.77
2022-11-19T03:48:14.611Z,4.70
2022-11-19T03:50:49.457Z,3.93
2022-11-19T03:53:18.687Z,4.00
2022-11-19T03:55:50.181Z,3.57
2022-11-19T03:58:18.091Z,5.00
2022-11-19T04:00:45.759Z,4.53
2022-11-19T04:03:14.848Z,6.30
2022-11-19T04:05:42.485Z,5.63
2022-11-19T04:08:10.408Z,5.27
2022-11-19T04:10:38.136Z,4.93
2022-11-19T04:13:05.797Z,5.27
2022-11-19T04:15:33.523Z,6.07
2022-11-19T04:18:16.546Z,5.77
2022-11-19T04:20:45.054Z,6.37
2022-11-19T04:23:12.768Z,5.77
2022-11-19T04:25:41.420Z,5.27
2022-11-19T04:28:09.148Z,5.73
2022-11-19T04:30:36.853Z,6.07
2022-11-19T04:33:05.097Z,6.10
2022-11-19T04:35:34.316Z,5.40
2022-11-19T04:38:02.000Z,5.40
2022-11-19T04:40:29.758Z,5.23
2022-11-19T04:42:57.521Z,4.50
2022-11-19T04:45:25.170Z,5.00
2022-11-19T04:47:52.778Z,4.77
2022-11-19T04:50:20.453Z,5.03
2022-11-19T04:52:49.497Z,4.63
2022-11-19T04:55:17.287Z,4.87
2022-11-19T04:57:44.997Z,4.97
2022-11-19T05:00:13.965Z,4.97
2022-11-19T05:02:41.587Z,4.97
2022-11-19T05:05:09.959Z,4.83
2022-11-19T05:07:37.663Z,4.53
2022-11-19T05:10:07.490Z,4.63
2022-11-19T05:12:35.440Z,4.70
2022-11-19T05:15:03.126Z,4.97
2022-11-19T05:17:30.745Z,5.07
2022-11-19T05:19:59.972Z,4.33
2022-11-19T05:22:27.812Z,4.97
2022-11-19T05:24:55.456Z,4.47
2022-11-19T05:27:24.450Z,4.03
2022-11-19T05:29:52.059Z,4.07
2022-11-19T05:32:19.746Z,3.97
2022-11-19T05:34:47.556Z,4.40
2022-11-19T05:37:15.426Z,4.13
2022-11-19T05:39:43.307Z,4.37
2022-11-19T05:42:10.973Z,4.70
2022-11-19T05:44:39.980Z,4.13
2022-11-19T05:47:07.593Z,4.90
2022-11-19T05:49:35.250Z,4.47
2022-11-19T05:52:02.955Z,4.37
2022-11-19T05:54:30.690Z,5.00
2022-11-19T05:56:58.380Z,5.40
2022-11-19T05:59:26.042Z,4.53
2022-11-19T06:01:55.048Z,4.47
2022-11-19T06:04:22.679Z,4.70
2022-11-19T06:06:50.568Z,4.83
2022-11-19T06:09:18.443Z,4.63
2022-11-19T06:11:50.236Z,5.07
2022-11-19T06:14:19.077Z,4.63
2022-11-19T06:16:46.858Z,4.47
2022-11-19T06:19:16.052Z,4.67
2022-11-19T06:21:43.880Z,4.20
2022-11-19T06:24:14.007Z,4.60
2022-11-19T06:26:42.077Z,4.53
2022-11-19T06:29:10.584Z,4.80
2022-11-19T06:31:38.353Z,4.77
2022-11-19T06:34:06.111Z,4.63
2022-11-19T06:36:40.424Z,4.57
2022-11-19T06:39:11.130Z,4.87
2022-11-19T06:41:38.808Z,4.43
2022-11-19T06:44:06.455Z,3.87
2022-11-19T06:46:34.223Z,4.33
2022-11-19T06:49:03.680Z,4.37
2022-11-19T06:51:31.451Z,3.73
2022-11-19T06:54:00.614Z,4.33
2022-11-19T06:56:28.281Z,4.27
2022-11-19T06:58:57.392Z,3.67
2022-11-19T07:01:25.579Z,3.70
2022-11-19T07:03:53.329Z,3.60
2022-11-19T07:06:21.124Z,2.80
2022-11-19T07:08:48.996Z,2.87
2022-11-19T07:11:27.156Z,3.00
2022-11-19T07:13:59.075Z,2.73
2022-11-19T07:16:31.091Z,2.77
2022-11-19T07:19:00.062Z,2.50
2022-11-19T07:21:28.765Z,2.70
2022-11-19T07:23:56.685Z,2.83
2022-11-19T07:26:26.836Z,2.70
2022-11-19T07:28:54.750Z,3.70
2022-11-19T07:31:23.123Z,3.70
2022-11-19T07:33:50.838Z,4.10
2022-11-19T07:36:18.837Z,3.30
2022-11-19T07:38:47.087Z,4.00
2022-11-19T07:41:28.832Z,4.23
2022-11-19T07:43:57.964Z,4.90
2022-11-19T07:46:25.848Z,5.17
2022-11-19T07:48:55.359Z,4.87
2022-11-19T07:51:23.512Z,4.43
2022-11-19T07:53:51.323Z,4.70
2022-11-19T07:56:19.407Z,4.83
2022-11-19T07:58:47.204Z,4.73
2022-11-19T08:01:18.933Z,4.50
2022-11-19T08:03:50.582Z,4.70
2022-11-19T08:06:23.283Z,4.90
2022-11-19T08:08:50.949Z,4.70
2022-11-19T08:11:19.276Z,4.97
2022-11-19T08:13:47.121Z,4.40
2022-11-19T08:16:37.605Z,5.53
2022-11-19T08:19:07.210Z,4.67
2022-11-19T08:21:35.461Z,4.97
2022-11-19T08:24:03.255Z,4.43
2022-11-19T08:26:30.913Z,5.07
2022-11-19T08:29:00.813Z,5.53
2022-11-19T08:31:30.098Z,5.23
2022-11-19T08:33:57.808Z,4.77
2022-11-19T08:36:25.519Z,5.40
2022-11-19T08:38:53.186Z,4.90
2022-11-19T08:41:38.227Z,5.60
2022-11-19T08:44:06.302Z,6.70
2022-11-19T08:46:35.567Z,6.83
2022-11-19T08:49:03.162Z,6.83
2022-11-19T08:51:30.884Z,7.43
2022-11-19T08:53:58.542Z,7.03
2022-11-19T08:56:26.274Z,7.00
2022-11-19T08:58:57.353Z,7.10
2022-11-19T09:01:27.588Z,6.23
2022-11-19T09:03:56.629Z,7.30
2022-11-19T09:06:24.384Z,6.63
2022-11-19T09:08:52.020Z,6.33
2022-11-19T09:11:21.627Z,6.13
2022-11-19T09:13:49.556Z,7.10
2022-11-19T09:16:17.475Z,6.27
2022-11-19T09:18:45.195Z,6.13
2022-11-19T09:21:14.259Z,5.60
2022-11-19T09:23:42.687Z,5.77
2022-11-19T09:26:15.894Z,6.33
2022-11-19T09:28:44.275Z,7.23
2022-11-19T09:31:14.460Z,5.63
2022-11-19T09:33:43.827Z,6.00
2022-11-19T09:36:12.317Z,6.43
2022-11-19T09:38:41.671Z,5.97
2022-11-19T09:41:44.734Z,6.20
2022-11-19T09:44:23.581Z,7.23
2022-11-19T09:47:02.257Z,6.50
2022-11-19T09:49:35.336Z,5.87
2022-11-19T09:52:11.125Z,5.37
2022-11-19T09:54:45.630Z,5.77
2022-11-19T09:57:19.444Z,5.17
2022-11-19T09:59:48.757Z,6.07
2022-11-19T10:02:18.999Z,5.70
2022-11-19T10:04:48.227Z,5.90
2022-11-19T10:07:31.203Z,5.67
2022-11-19T10:10:16.256Z,5.30
2022-11-19T10:13:12.741Z,5.57
2022-11-19T10:15:58.728Z,5.33
2022-11-19T10:18:36.679Z,5.40
2022-11-19T10:21:10.773Z,5.30
2022-11-19T10:23:50.460Z,5.77
2022-11-19T10:26:25.534Z,5.80
2022-11-19T10:28:56.964Z,6.10
2022-11-19T10:31:35.857Z,5.07
2022-11-19T10:34:12.826Z,5.60
2022-11-19T10:36:44.409Z,5.63
2022-11-19T10:39:19.413Z,6.03
2022-11-19T10:41:54.937Z,5.63
2022-11-19T10:44:39.992Z,5.43
2022-11-19T10:47:11.737Z,5.57
2022-11-19T10:49:41.855Z,5.37
2022-11-19T10:52:18.840Z,5.37
2022-11-19T10:54:48.522Z,5.43
2022-11-19T10:57:20.158Z,5.70
2022-11-19T10:59:50.640Z,5.73
2022-11-19T11:02:27.987Z,6.03
2022-11-19T11:05:14.520Z,5.60
2022-11-19T11:07:57.085Z,5.30
2022-11-19T11:10:46.345Z,5.40
2022-11-19T11:13:46.415Z,6.10
2022-11-19T11:16:18.455Z,5.80
2022-11-19T11:18:47.579Z,5.50
2022-11-19T11:21:33.109Z,5.17
2022-11-19T11:24:02.693Z,6.17
2022-11-19T11:26:33.619Z,5.53
2022-11-19T11:29:05.337Z,5.97
2022-11-19T11:31:36.787Z,5.63
2022-11-19T11:34:06.031Z,4.80
2022-11-19T11:36:36.728Z,5.67
2022-11-19T11:39:06.266Z,6.20
2022-11-19T11:44:28.668Z,5.93
2022-11-19T11:46:59.535Z,6.10
2022-11-19T11:49:31.007Z,5.67
2022-11-19T11:52:17.627Z,5.50
2022-11-19T11:54:57.499Z,5.87
2022-11-19T11:57:27.592Z,5.07
2022-11-19T11:59:56.966Z,5.60
2022-11-19T12:02:30.263Z,6.07
2022-11-19T12:05:02.064Z,5.13
2022-11-19T12:07:47.062Z,5.77
2022-11-19T12:10:25.412Z,6.30
2022-11-19T12:13:08.500Z,5.87
2022-11-19T12:15:47.042Z,5.77
2022-11-19T12:18:27.538Z,5.10
2022-11-19T12:21:02.969Z,4.97
2022-11-19T12:23:53.493Z,5.50
2022-11-19T12:26:32.294Z,5.10
2022-11-19T12:29:13.384Z,4.80
2022-11-19T12:31:56.539Z,6.03
2022-11-19T12:34:47.887Z,5.43
2022-11-19T12:37:28.527Z,5.47
2022-11-19T12:40:01.383Z,4.60
2022-11-19T12:42:41.357Z,5.20
2022-11-19T12:45:18.430Z,5.43
2022-11-19T12:48:12.898Z,6.00
2022-11-19T12:50:51.725Z,5.87
2022-11-19T12:53:33.614Z,6.17
2022-11-19T12:56:12.429Z,6.13
2022-11-19T12:58:51.490Z,5.63
2022-11-19T13:01:24.708Z,5.67
2022-11-19T13:04:04.234Z,5.80
2022-11-19T13:06:37.137Z,6.07
2022-11-19T13:09:10.360Z,5.40
2022-11-19T13:11:43.739Z,5.60
2022-11-19T13:14:18.817Z,5.30
2022-11-19T13:16:47.207Z,5.97
2022-11-19T13:19:25.937Z,5.80
2022-11-19T13:21:58.455Z,6.20
2022-11-19T13:24:32.378Z,6.77
2022-11-19T13:27:04.901Z,7.17
2022-11-19T13:29:38.385Z,6.20
2022-11-19T13:32:16.612Z,5.87
2022-11-19T13:35:00.841Z,6.67
2022-11-19T13:37:40.239Z,6.83
2022-11-19T13:40:20.660Z,6.67
2022-11-19T13:46:06.526Z,5.80
2022-11-19T13:48:39.927Z,6.20
2022-11-19T13:51:21.249Z,5.83
2022-11-19T13:53:49.299Z,5.93
2022-11-19T13:56:18.254Z,5.60
2022-11-19T13:58:48.566Z,5.30
2022-11-19T14:01:32.042Z,6.00
2022-11-19T14:04:18.088Z,5.13
2022-11-19T14:07:00.463Z,5.17
2022-11-19T14:09:38.568Z,5.40
2022-11-19T14:12:46.136Z,5.77
2022-11-19T14:15:50.425Z,5.93
2022-11-19T14:18:43.544Z,5.43
2022-11-19T14:22:10.689Z,5.50
2022-11-19T14:25:15.843Z,5.60
2022-11-19T14:27:44.510Z,5.37
2022-11-19T14:30:17.767Z,5.73
2022-11-19T14:32:51.653Z,5.77
2022-11-19T14:35:30.749Z,6.20
2022-11-19T14:38:10.997Z,6.70
2022-11-19T14:40:43.720Z,5.50
2022-11-19T14:43:42.149Z,5.73
2022-11-19T14:46:33.592Z,6.67
2022-11-19T14:49:05.889Z,6.23
2022-11-19T14:51:39.106Z,6.73
2022-11-19T14:54:30.067Z,6.40
2022-11-19T14:57:25.551Z,6.30
2022-11-19T14:59:56.334Z,7.30
2022-11-19T15:02:27.587Z,7.47
2022-11-19T15:05:02.771Z,6.63
2022-11-19T15:07:40.972Z,7.30
2022-11-19T15:10:29.171Z,7.43
2022-11-19T15:13:22.721Z,6.23
2022-11-19T15:15:53.801Z,7.33
2022-11-19T15:19:01.948Z,7.37
2022-11-19T15:22:06.791Z,7.90
2022-11-19T15:24:50.728Z,7.33
2022-11-19T15:27:28.028Z,8.23
2022-11-19T15:30:07.493Z,7.83
2022-11-19T15:33:03.406Z,7.07
2022-11-19T15:36:05.387Z,8.10
2022-11-19T15:38:39.589Z,7.97
2022-11-19T15:41:13.371Z,8.20
2022-11-19T15:43:46.957Z,8.40
2022-11-19T15:46:20.096Z,8.33
2022-11-19T15:48:58.635Z,7.70
2022-11-19T15:51:26.637Z,7.27
2022-11-19T15:54:01.340Z,8.40
2022-11-19T15:56:33.003Z,7.93
2022-11-19T15:59:03.339Z,8.63
2022-11-19T16:01:34.344Z,7.23
2022-11-19T16:04:07.510Z,8.17
2022-11-19T16:06:37.588Z,7.57
2022-11-19T16:09:05.923Z,8.87
2022-11-19T16:11:54.853Z,9.10
2022-11-19T16:14:42.974Z,7.70
2022-11-19T16:17:41.673Z,9.03
2022-11-19T16:20:20.460Z,8.17
2022-11-19T16:22:53.800Z,8.50
2022-11-19T16:25:32.296Z,8.50
2022-11-19T16:28:03.105Z,8.73
2022-11-19T16:30:40.641Z,9.80
2022-11-19T16:33:15.888Z,9.87
2022-11-19T16:35:47.159Z,9.27
2022-11-19T16:38:23.113Z,10.40
2022-11-19T16:41:08.339Z,9.33
2022-11-19T16:43:37.427Z,9.70
2022-11-19T16:46:07.877Z,8.80
2022-11-19T16:49:00.252Z,9.13
2022-11-19T16:51:37.292Z,9.53
2022-11-19T16:54:06.896Z,8.80
2022-11-19T16:56:52.563Z,9.63
2022-11-19T16:59:23.827Z,10.13
2022-11-19T17:01:59.631Z,8.63
2022-11-19T17:04:31.410Z,10.30
2022-11-19T17:07:00.131Z,10.43
2022-11-19T17:09:41.541Z,10.63
2022-11-19T17:12:25.111Z,10.57
2022-11-19T17:14:59.039Z,10.20
2022-11-19T17:17:40.416Z,10.67
2022-11-19T17:20:45.141Z,9.83
2022-11-19T17:23:17.205Z,10.83
2022-11-19T17:25:50.507Z,11.43
2022-11-19T17:28:21.433Z,10.97
2022-11-19T17:30:50.466Z,11.10
2022-11-19T17:33:22.853Z,11.80
2022-11-19T17:35:52.104Z,11.07
2022-11-19T17:38:23.702Z,10.97
2022-11-19T17:40:53.190Z,11.80
2022-11-19T17:43:41.604Z,11.47
2022-11-19T17:46:09.318Z,10.80
2022-11-19T17:48:40.491Z,10.83
2022-11-19T17:51:10.754Z,11.30
2022-11-19T17:53:38.473Z,10.83
2022-11-19T17:56:06.963Z,11.13
2022-11-19T17:58:34.709Z,12.00
2022-11-19T18:01:02.540Z,11.83
2022-11-19T18:03:30.242Z,12.07
2022-11-19T18:06:01.335Z,11.43
2022-11-19T18:08:29.382Z,11.93
2022-11-19T18:10:57.277Z,11.87
2022-11-19T18:13:28.029Z,12.13
2022-11-19T18:15:55.727Z,11.83
2022-11-19T18:18:23.420Z,11.73
2022-11-19T18:20:51.560Z,11.33
2022-11-19T18:23:20.611Z,11.67
2022-11-19T18:25:48.314Z,10.47
2022-11-19T18:28:16.057Z,12.23
2022-11-19T18:30:43.985Z,12.30
2022-11-19T18:33:12.422Z,12.27
2022-11-19T18:35:40.121Z,12.27
2022-11-19T18:38:07.779Z,14.07
2022-11-19T18:40:37.019Z,11.43
2022-11-19T18:43:22.761Z,13.17
2022-11-19T18:45:50.423Z,13.13
2022-11-19T18:48:18.101Z,13.17
2022-11-19T18:50:45.959Z,13.70
2022-11-19T18:53:14.080Z,12.33
2022-11-19T18:55:43.109Z,11.63
2022-11-19T18:58:10.825Z,11.90
2022-11-19T19:00:38.507Z,13.70
2022-11-19T19:03:08.037Z,13.13
2022-11-19T19:05:35.742Z,13.10
2022-11-19T19:08:03.488Z,11.93
2022-11-19T19:10:31.204Z,12.53
2022-11-19T19:12:59.508Z,12.17
2022-11-19T19:15:27.280Z,13.43
2022-11-19T19:17:55.038Z,13.20
2022-11-19T19:20:22.740Z,12.80
2022-11-19T19:22:50.492Z,12.83
2022-11-19T19:25:18.299Z,13.80
2022-11-19T19:27:46.029Z,12.60
2022-11-19T19:30:16.007Z,13.03
2022-11-19T19:32:44.467Z,14.00
2022-11-19T19:35:12.204Z,14.13
2022-11-19T19:37:41.764Z,14.23
2022-11-19T19:40:11.020Z,13.37
2022-11-19T19:42:41.351Z,13.23
2022-11-19T19:45:10.076Z,13.07
2022-11-19T19:47:39.152Z,13.03
2022-11-19T19:50:07.836Z,14.87
2022-11-19T19:52:35.571Z,12.57
2022-11-19T19:55:03.379Z,14.60
2022-11-19T19:57:31.154Z,13.60
2022-11-19T19:59:59.657Z,14.27
2022-11-19T20:02:27.411Z,13.90
2022-11-19T20:04:56.453Z,13.60
2022-11-19T20:07:24.230Z,13.17
2022-11-19T20:09:51.975Z,14.03
2022-11-19T20:12:19.570Z,13.80
2022-11-19T20:14:47.713Z,14.30
2022-11-19T20:17:15.564Z,15.07
2022-11-19T20:19:43.277Z,12.83
2022-11-19T20:22:12.268Z,13.37
2022-11-19T20:24:39.971Z,13.53
2022-11-19T20:27:07.624Z,14.23
2022-11-19T20:29:35.267Z,12.97
2022-11-19T20:32:03.038Z,13.60
2022-11-19T20:34:30.747Z,12.73
2022-11-19T20:36:58.521Z,12.70
2022-11-19T20:39:27.573Z,13.07
2022-11-19T20:42:12.714Z,13.73
2022-11-19T20:44:40.494Z,12.73
2022-11-19T20:47:08.141Z,14.20
2022-11-19T20:49:38.058Z,13.23
2022-11-19T20:52:06.656Z,13.63
2022-11-19T20:54:35.748Z,14.27
2022-11-19T20:57:03.720Z,13.27
2022-11-19T20:59:31.736Z,13.50
2022-11-19T21:01:59.527Z,13.87
2022-11-19T21:04:28.454Z,13.67
2022-11-19T21:06:56.400Z,14.47
2022-11-19T21:09:24.771Z,16.40
2022-11-19T21:11:54.280Z,17.60
2022-11-19T21:14:22.160Z,13.87
2022-11-19T21:16:49.963Z,14.50
2022-11-19T21:19:17.898Z,13.87
2022-11-19T21:21:45.818Z,12.80
2022-11-19T21:24:13.757Z,12.93
2022-11-19T21:26:41.693Z,13.87
2022-11-19T21:29:10.886Z,13.87
2022-11-19T21:31:39.763Z,14.27
2022-11-19T21:34:08.769Z,12.93
2022-11-19T21:36:37.254Z,13.50
2022-11-19T21:39:06.054Z,13.20
2022-11-19T21:41:35.925Z,13.60
2022-11-19T21:44:04.286Z,14.17
2022-11-19T21:46:33.843Z,13.87
2022-11-19T21:49:01.782Z,13.83
2022-11-19T21:51:29.738Z,13.07
2022-11-19T21:53:58.690Z,13.30
2022-11-19T21:56:28.162Z,13.43
2022-11-19T21:58:55.876Z,13.63
2022-11-19T22:01:23.583Z,13.30
2022-11-19T22:03:52.601Z,13.17
2022-11-19T22:06:23.010Z,12.80
2022-11-19T22:08:50.680Z,12.50
2022-11-19T22:11:30.792Z,13.80
2022-11-19T22:14:00.533Z,13.53
2022-11-19T22:16:28.612Z,14.17
2022-11-19T22:18:57.701Z,13.70
2022-11-19T22:21:25.427Z,13.97
2022-11-19T22:23:53.622Z,14.00
2022-11-19T22:26:21.411Z,14.23
2022-11-19T22:28:49.121Z,13.77
2022-11-19T22:31:16.869Z,15.20
2022-11-19T22:33:44.613Z,14.83
2022-11-19T22:36:13.603Z,13.63
2022-11-19T22:38:41.288Z,13.27
2022-11-19T22:41:11.341Z,13.93
2022-11-19T22:43:40.153Z,13.90
2022-11-19T22:46:08.558Z,14.83
2022-11-19T22:48:37.289Z,15.23
2022-11-19T22:51:07.220Z,15.30
2022-11-19T22:53:36.636Z,15.47
2022-11-19T22:56:05.696Z,15.13
2022-11-19T22:58:33.446Z,15.50
2022-11-19T23:01:01.238Z,15.27
2022-11-19T23:03:29.131Z,15.43
2022-11-19T23:05:59.169Z,15.00
2022-11-19T23:08:27.206Z,15.47
2022-11-19T23:11:00.796Z,14.40
2022-11-19T23:13:32.056Z,14.50
2022-11-19T23:16:02.064Z,15.67
2022-11-19T23:18:31.390Z,15.70
2022-11-19T23:21:00.019Z,14.47
2022-11-19T23:23:28.345Z,15.43
2022-11-19T23:25:57.636Z,16.63
2022-11-19T23:28:27.252Z,16.30
2022-11-19T23:30:55.600Z,15.77
2022-11-19T23:33:23.883Z,15.47
2022-11-19T23:35:51.583Z,16.60
2022-11-19T23:38:19.297Z,16.00
2022-11-19T23:40:47.205Z,14.07
2022-11-19T23:43:14.942Z,14.90
2022-11-19T23:45:44.029Z,15.67
2022-11-19T23:48:11.692Z,14.57
2022-11-19T23:50:39.395Z,14.63
2022-11-19T23:53:07.279Z,15.77
2022-11-19T23:55:35.122Z,14.57
2022-11-19T23:58:02.823Z,15.20
